createdAt,value
2019-04-14T00:01:15.521Z,7.47
2019-04-14T00:03:54.297Z,7.13
2019-04-14T00:06:26.895Z,7.40
2019-04-14T00:08:56.662Z,7.30
2019-04-14T00:11:27.806Z,7.80
2019-04-14T00:13:58.744Z,7.30
2019-04-14T00:16:31.289Z,7.50
2019-04-14T00:19:02.012Z,8.10
2019-04-14T00:21:32.479Z,7.17
2019-04-14T00:24:03.061Z,8.03
2019-04-14T00:26:35.610Z,7.15
2019-04-14T00:29:06.804Z,7.93
2019-04-14T00:31:37.115Z,7.95
2019-04-14T00:34:18.118Z,7.45
2019-04-14T00:37:12.078Z,8.23
2019-04-14T00:39:45.120Z,7.90
2019-04-14T00:42:25.639Z,7.67
2019-04-14T00:45:02.841Z,7.10
2019-04-14T00:47:54.787Z,8.10
2019-04-14T00:50:15.378Z,7.33
2019-04-14T00:52:45.826Z,7.75
2019-04-14T00:55:16.070Z,8.47
2019-04-14T00:57:46.290Z,9.17
2019-04-14T01:00:18.814Z,8.95
2019-04-14T01:02:47.818Z,7.80
2019-04-14T01:05:17.676Z,7.05
2019-04-14T01:07:48.020Z,8.45
2019-04-14T01:10:19.254Z,7.35
2019-04-14T01:12:53.853Z,8.28
2019-04-14T01:15:24.618Z,8.10
2019-04-14T01:17:54.946Z,8.28
2019-04-14T01:20:26.036Z,8.80
2019-04-14T01:22:55.830Z,8.80
2019-04-14T01:25:26.060Z,8.30
2019-04-14T01:27:56.038Z,8.50
2019-04-14T01:30:26.272Z,10.10
2019-04-14T01:32:56.501Z,8.15
2019-04-14T01:35:27.092Z,9.80
2019-04-14T01:37:57.249Z,9.27
2019-04-14T01:40:27.314Z,8.73
2019-04-14T01:42:57.306Z,10.05
2019-04-14T01:45:27.519Z,9.50
2019-04-14T01:47:57.580Z,9.25
2019-04-14T01:50:45.620Z,9.00
2019-04-14T01:53:22.891Z,9.20
2019-04-14T01:56:03.519Z,9.45
2019-04-14T01:58:42.673Z,9.15
2019-04-14T02:01:19.524Z,9.13
2019-04-14T02:03:49.885Z,9.00
2019-04-14T02:06:20.190Z,7.45
2019-04-14T02:08:50.220Z,9.28
2019-04-14T02:11:20.560Z,8.45
2019-04-14T02:13:50.821Z,9.50
2019-04-14T02:16:29.215Z,8.90
2019-04-14T02:18:54.907Z,10.88
2019-04-14T02:21:23.833Z,9.15
2019-04-14T02:23:54.016Z,9.70
2019-04-14T02:26:24.110Z,9.28
2019-04-14T02:28:55.009Z,9.00
2019-04-14T02:31:52.893Z,8.63
2019-04-14T02:37:04.414Z,9.18
2019-04-14T02:39:29.427Z,7.87
2019-04-14T02:42:07.047Z,7.35
2019-04-14T02:49:36.844Z,7.60
2019-04-14T02:52:04.949Z,8.35
2019-04-14T02:54:46.498Z,8.73
2019-04-14T02:57:14.446Z,9.08
2019-04-14T02:59:42.925Z,7.65
2019-04-14T03:02:23.006Z,8.80
2019-04-14T03:04:45.490Z,8.53
2019-04-14T03:07:26.702Z,9.45
2019-04-14T03:09:46.676Z,8.23
2019-04-14T03:12:29.111Z,8.98
2019-04-14T03:14:59.286Z,8.33
2019-04-14T03:17:58.297Z,8.53
2019-04-14T03:23:10.743Z,9.15
2019-04-14T03:25:59.379Z,9.10
2019-04-14T03:28:36.545Z,8.40
2019-04-14T03:34:11.111Z,8.48
2019-04-14T03:38:49.737Z,8.30
2019-04-14T03:41:24.084Z,8.88
2019-04-14T03:43:41.344Z,8.90
2019-04-14T03:46:37.111Z,8.05
2019-04-14T03:56:35.564Z,9.38
2019-04-14T03:59:06.403Z,8.15
2019-04-14T04:01:36.772Z,8.13
2019-04-14T04:04:07.504Z,7.65
2019-04-14T04:06:37.816Z,8.45
2019-04-14T04:09:08.419Z,9.90
2019-04-14T04:11:39.034Z,8.35
2019-04-14T04:14:09.636Z,8.78
2019-04-14T04:16:49.286Z,9.13
2019-04-14T04:19:35.898Z,9.73
2019-04-14T04:22:23.728Z,8.53
2019-04-14T04:24:58.650Z,7.55
2019-04-14T04:27:35.159Z,8.60
2019-04-14T04:30:16.573Z,9.68
2019-04-14T04:32:54.422Z,9.10
2019-04-14T04:35:34.631Z,9.50
2019-04-14T04:38:24.749Z,8.68
2019-04-14T04:40:55.071Z,8.88
2019-04-14T04:43:25.496Z,8.90
2019-04-14T04:45:55.960Z,10.05
2019-04-14T04:48:26.420Z,8.60
2019-04-14T04:50:56.424Z,9.23
2019-04-14T04:53:26.718Z,9.30
2019-04-14T04:55:56.824Z,10.05
2019-04-14T04:58:26.674Z,8.88
2019-04-14T05:00:57.677Z,9.50
2019-04-14T05:03:27.610Z,9.53
2019-04-14T05:06:11.336Z,8.68
2019-04-14T05:08:48.037Z,9.60
2019-04-14T05:11:33.756Z,9.30
2019-04-14T05:14:10.959Z,7.83
2019-04-14T05:16:41.942Z,8.80
2019-04-14T05:19:20.588Z,9.90
2019-04-14T05:21:45.242Z,8.43
2019-04-14T05:24:15.750Z,9.05
2019-04-14T05:26:46.531Z,10.20
2019-04-14T05:29:16.767Z,8.68
2019-04-14T05:31:46.823Z,9.20
2019-04-14T05:34:17.307Z,9.53
2019-04-14T05:36:47.831Z,8.50
2019-04-14T05:39:17.831Z,9.90
2019-04-14T05:41:57.607Z,7.97
2019-04-14T05:44:19.259Z,8.38
2019-04-14T05:46:49.163Z,9.50
2019-04-14T05:49:30.256Z,8.15
2019-04-14T05:51:50.758Z,9.70
2019-04-14T05:54:20.723Z,9.25
2019-04-14T05:56:51.510Z,8.43
2019-04-14T05:59:22.397Z,9.05
2019-04-14T06:01:52.207Z,8.70
2019-04-14T06:04:22.143Z,7.35
2019-04-14T06:06:52.304Z,6.85
2019-04-14T06:09:22.145Z,7.10
2019-04-14T06:11:51.898Z,7.60
2019-04-14T06:14:21.623Z,8.38
2019-04-14T06:16:51.610Z,9.30
2019-04-14T06:19:21.367Z,7.03
2019-04-14T06:21:51.145Z,7.17
2019-04-14T06:24:20.869Z,6.67
2019-04-14T06:26:50.693Z,7.78
2019-04-14T06:29:20.499Z,6.47
2019-04-14T06:32:00.116Z,6.85
2019-04-14T06:34:46.139Z,7.05
2019-04-14T06:37:20.981Z,7.50
2019-04-14T06:39:51.924Z,7.70
2019-04-14T06:42:24.069Z,6.53
2019-04-14T06:44:53.861Z,6.65
2019-04-14T06:47:23.900Z,7.33
2019-04-14T06:49:53.992Z,7.28
2019-04-14T06:52:23.728Z,5.60
2019-04-14T06:54:53.535Z,6.60
2019-04-14T06:57:23.390Z,6.87
2019-04-14T06:59:53.216Z,7.00
2019-04-14T07:02:23.170Z,7.42
2019-04-14T07:04:52.976Z,6.55
2019-04-14T07:07:23.274Z,6.70
2019-04-14T07:09:53.134Z,8.05
2019-04-14T07:12:22.940Z,6.85
2019-04-14T07:14:52.716Z,7.42
2019-04-14T07:17:22.595Z,7.30
2019-04-14T07:20:01.770Z,6.78
2019-04-14T07:22:23.892Z,7.12
2019-04-14T07:24:53.635Z,8.58
2019-04-14T07:27:23.358Z,8.60
2019-04-14T07:30:00.334Z,7.70
2019-04-14T07:32:45.405Z,8.20
2019-04-14T07:35:49.420Z,7.80
2019-04-14T07:38:27.179Z,8.13
2019-04-14T07:41:31.143Z,8.00
2019-04-14T07:44:22.966Z,7.35
2019-04-14T07:47:00.355Z,8.90
2019-04-14T07:49:49.826Z,8.95
2019-04-14T07:52:49.506Z,8.63
2019-04-14T07:55:41.343Z,8.90
2019-04-14T07:58:48.819Z,8.83
2019-04-14T08:01:25.987Z,7.95
2019-04-14T08:04:17.921Z,8.10
2019-04-14T08:06:50.147Z,8.50
2019-04-14T08:09:19.948Z,9.75
2019-04-14T08:11:49.732Z,8.23
2019-04-14T08:14:19.589Z,10.00
2019-04-14T08:16:49.385Z,9.18
2019-04-14T08:19:19.207Z,9.03
2019-04-14T08:21:48.997Z,9.00
2019-04-14T08:24:18.795Z,8.50
2019-04-14T08:26:48.499Z,8.03
2019-04-14T08:29:18.255Z,9.30
2019-04-14T08:31:48.041Z,9.27
2019-04-14T08:34:17.770Z,9.70
2019-04-14T08:36:47.512Z,8.60
2019-04-14T08:39:17.277Z,9.67
2019-04-14T08:42:00.666Z,8.47
2019-04-14T08:44:39.615Z,10.50
2019-04-14T08:47:18.965Z,10.80
2019-04-14T08:50:14.561Z,10.50
2019-04-14T08:52:55.602Z,9.37
2019-04-14T08:55:43.397Z,8.77
2019-04-14T08:58:20.741Z,10.17
2019-04-14T09:00:58.850Z,9.60
2019-04-14T09:03:46.583Z,9.00
2019-04-14T09:06:20.771Z,9.50
2019-04-14T09:09:09.555Z,9.00
2019-04-14T09:11:44.081Z,9.40
2019-04-14T09:14:13.898Z,9.13
2019-04-14T09:16:43.638Z,9.00
2019-04-14T09:19:13.543Z,9.10
2019-04-14T09:21:43.299Z,8.97
2019-04-14T09:24:13.097Z,10.50
2019-04-14T09:26:42.787Z,9.60
2019-04-14T09:29:12.640Z,9.47
2019-04-14T09:31:42.356Z,8.93
2019-04-14T09:34:12.204Z,9.97
2019-04-14T09:36:42.893Z,10.17
2019-04-14T09:39:12.676Z,8.50
2019-04-14T09:41:42.445Z,9.43
2019-04-14T09:44:12.158Z,9.80
2019-04-14T09:46:41.897Z,8.83
2019-04-14T09:49:15.068Z,12.37
2019-04-14T09:51:47.800Z,10.90
2019-04-14T09:54:17.512Z,9.10
2019-04-14T09:56:47.280Z,9.47
2019-04-14T09:59:17.027Z,10.07
2019-04-14T10:01:48.520Z,9.53
2019-04-14T10:04:18.446Z,9.80
2019-04-14T10:06:48.324Z,10.20
2019-04-14T10:09:18.092Z,10.27
2019-04-14T10:11:52.819Z,9.20
2019-04-14T10:14:20.904Z,9.13
2019-04-14T10:16:50.662Z,9.50
2019-04-14T10:19:20.420Z,9.50
2019-04-14T10:21:50.235Z,10.03
2019-04-14T10:24:20.026Z,9.87
2019-04-14T10:26:49.830Z,10.03
2019-04-14T10:29:19.770Z,9.90
2019-04-14T10:31:49.580Z,9.33
2019-04-14T10:34:20.738Z,10.07
2019-04-14T10:36:50.536Z,10.87
2019-04-14T10:39:20.380Z,10.60
2019-04-14T10:41:52.365Z,10.40
2019-04-14T10:44:22.122Z,8.80
2019-04-14T10:46:51.868Z,10.50
2019-04-14T10:49:21.695Z,10.40
2019-04-14T10:51:51.440Z,10.03
2019-04-14T10:54:21.240Z,9.57
2019-04-14T10:56:51.037Z,9.90
2019-04-14T10:59:20.768Z,10.50
2019-04-14T11:01:50.589Z,9.53
2019-04-14T11:04:20.326Z,8.90
2019-04-14T11:06:59.578Z,10.60
2019-04-14T11:09:29.279Z,9.67
2019-04-14T11:11:59.061Z,9.50
2019-04-14T11:14:28.902Z,10.10
2019-04-14T11:16:58.618Z,9.97
2019-04-14T11:19:28.341Z,10.10
2019-04-14T11:21:58.098Z,9.43
2019-04-14T11:24:27.870Z,9.10
2019-04-14T11:26:57.729Z,9.97
2019-04-14T11:29:27.516Z,9.97
2019-04-14T11:32:25.910Z,10.00
2019-04-14T11:35:16.927Z,10.90
2019-04-14T11:38:09.007Z,10.03
2019-04-14T11:40:44.651Z,9.70
2019-04-14T11:43:14.687Z,9.20
2019-04-14T11:45:44.475Z,10.40
2019-04-14T11:48:15.177Z,10.70
2019-04-14T11:50:45.045Z,9.40
2019-04-14T11:53:15.090Z,9.77
2019-04-14T11:55:45.748Z,8.83
2019-04-14T11:58:17.222Z,8.20
2019-04-14T12:01:06.033Z,8.30
2019-04-14T12:03:43.315Z,8.93
2019-04-14T12:06:29.967Z,8.97
2019-04-14T12:09:07.885Z,8.90
2019-04-14T12:11:37.817Z,7.70
2019-04-14T12:14:07.663Z,8.90
2019-04-14T12:16:40.589Z,8.30
2019-04-14T12:19:10.413Z,9.43
2019-04-14T12:21:40.655Z,9.80
2019-04-14T12:24:13.681Z,9.30
2019-04-14T12:26:43.425Z,9.67
2019-04-14T12:29:14.115Z,9.80
2019-04-14T12:31:44.899Z,8.93
2019-04-14T12:34:14.775Z,8.30
2019-04-14T12:36:44.618Z,8.53
2019-04-14T12:39:20.302Z,8.30
2019-04-14T12:42:05.785Z,8.80
2019-04-14T12:44:53.422Z,8.70
2019-04-14T12:47:42.981Z,8.57
2019-04-14T12:50:20.467Z,9.17
2019-04-14T12:52:55.839Z,8.97
2019-04-14T12:55:26.278Z,8.80
2019-04-14T12:57:59.583Z,7.90
2019-04-14T13:00:38.498Z,9.03
2019-04-14T13:03:08.308Z,9.03
2019-04-14T13:05:39.659Z,8.87
2019-04-14T13:08:09.442Z,8.50
2019-04-14T13:10:39.424Z,8.30
2019-04-14T13:13:09.257Z,8.13
2019-04-14T13:15:39.178Z,8.37
2019-04-14T13:18:09.011Z,8.53
2019-04-14T13:20:38.790Z,7.73
2019-04-14T13:23:08.568Z,8.30
2019-04-14T13:25:38.362Z,7.40
2019-04-14T13:28:08.312Z,7.90
2019-04-14T13:30:41.280Z,9.23
2019-04-14T13:33:11.108Z,7.13
2019-04-14T13:35:40.957Z,8.27
2019-04-14T13:38:10.755Z,8.03
2019-04-14T13:40:40.880Z,8.63
2019-04-14T13:43:10.568Z,7.97
2019-04-14T13:45:40.305Z,7.77
2019-04-14T13:48:10.079Z,7.70
2019-04-14T13:50:39.799Z,6.90
2019-04-14T13:53:09.660Z,7.70
2019-04-14T13:55:39.398Z,8.57
2019-04-14T13:58:09.079Z,6.87
2019-04-14T14:00:38.859Z,7.17
2019-04-14T14:03:11.584Z,7.33
2019-04-14T14:05:43.653Z,8.07
2019-04-14T14:08:12.994Z,7.30
2019-04-14T14:10:42.897Z,8.80
2019-04-14T14:13:22.215Z,7.20
2019-04-14T14:16:10.088Z,7.70
2019-04-14T14:18:51.119Z,6.90
2019-04-14T14:21:48.775Z,7.60
2019-04-14T14:24:36.223Z,6.47
2019-04-14T14:27:07.388Z,7.50
2019-04-14T14:29:39.028Z,7.80
2019-04-14T14:32:16.048Z,7.00
2019-04-14T14:34:45.893Z,6.90
2019-04-14T14:37:15.732Z,7.30
2019-04-14T14:39:45.535Z,6.67
2019-04-14T14:42:15.218Z,6.90
2019-04-14T14:44:50.903Z,7.17
2019-04-14T14:47:23.747Z,7.40
2019-04-14T14:50:03.743Z,7.40
2019-04-14T14:52:35.154Z,7.97
2019-04-14T14:55:05.748Z,8.90
2019-04-14T14:57:35.422Z,7.47
2019-04-14T15:00:08.914Z,7.20
2019-04-14T15:02:38.765Z,7.50
2019-04-14T15:05:08.550Z,8.67
2019-04-14T15:07:38.311Z,8.57
2019-04-14T15:10:08.389Z,8.00
2019-04-14T15:12:38.125Z,7.47
2019-04-14T15:15:08.287Z,7.10
2019-04-14T15:17:38.030Z,9.03
2019-04-14T15:20:07.913Z,8.23
2019-04-14T15:22:37.776Z,7.90
2019-04-14T15:25:07.720Z,7.10
2019-04-14T15:27:37.446Z,6.93
2019-04-14T15:30:11.868Z,6.57
2019-04-14T15:32:41.646Z,8.37
2019-04-14T15:35:11.559Z,7.20
2019-04-14T15:37:41.270Z,6.83
2019-04-14T15:40:11.571Z,7.73
2019-04-14T15:42:41.402Z,7.43
2019-04-14T15:45:14.018Z,8.03
2019-04-14T15:47:43.341Z,6.50
2019-04-14T15:50:13.382Z,6.43
2019-04-14T15:52:43.141Z,7.07
2019-04-14T15:55:14.137Z,6.67
2019-04-14T15:57:50.678Z,6.80
2019-04-14T16:00:38.266Z,7.70
2019-04-14T16:03:42.379Z,6.73
2019-04-14T16:06:32.706Z,7.90
2019-04-14T16:09:21.703Z,7.60
2019-04-14T16:12:12.182Z,6.70
2019-04-14T16:15:02.229Z,7.80
2019-04-14T16:17:40.907Z,8.20
2019-04-14T16:20:37.025Z,7.47
2019-04-14T16:23:09.821Z,8.00
2019-04-14T16:25:49.619Z,7.53
2019-04-14T16:28:28.065Z,7.40
2019-04-14T16:31:08.927Z,7.10
2019-04-14T16:33:57.971Z,7.53
2019-04-14T16:36:27.771Z,8.37
2019-04-14T16:38:57.579Z,7.90
2019-04-14T16:41:27.340Z,8.00
2019-04-14T16:43:57.151Z,7.97
2019-04-14T16:46:26.963Z,7.80
2019-04-14T16:48:57.810Z,7.23
2019-04-14T16:51:34.066Z,8.23
2019-04-14T16:54:12.180Z,7.63
2019-04-14T16:56:52.494Z,7.00
2019-04-14T16:59:22.412Z,7.30
2019-04-14T17:01:52.214Z,6.87
2019-04-14T17:04:21.960Z,8.63
2019-04-14T17:06:51.733Z,7.33
2019-04-14T17:09:21.690Z,6.50
2019-04-14T17:11:51.465Z,7.70
2019-04-14T17:14:28.480Z,8.03
2019-04-14T17:17:32.978Z,7.10
2019-04-14T17:20:08.921Z,6.73
2019-04-14T17:22:49.948Z,6.47
2019-04-14T17:25:27.828Z,7.03
2019-04-14T17:28:07.744Z,6.97
2019-04-14T17:30:44.776Z,6.73
2019-04-14T17:33:19.003Z,6.60
2019-04-14T17:36:04.363Z,6.87
2019-04-14T17:38:42.437Z,6.40
2019-04-14T17:41:18.841Z,6.40
2019-04-14T17:43:53.977Z,7.67
2019-04-14T17:46:43.966Z,8.03
2019-04-14T17:49:27.917Z,7.33
2019-04-14T17:52:15.932Z,6.57
2019-04-14T17:54:59.281Z,6.70
2019-04-14T17:57:44.000Z,8.07
2019-04-14T18:00:38.549Z,8.03
2019-04-14T18:03:26.479Z,6.40
2019-04-14T18:05:59.914Z,7.00
2019-04-14T18:08:42.636Z,6.60
2019-04-14T18:11:18.444Z,6.63
2019-04-14T18:13:59.013Z,6.53
2019-04-14T18:16:33.725Z,6.60
2019-04-14T18:19:13.854Z,6.50
2019-04-14T18:21:44.745Z,6.70
2019-04-14T18:24:14.552Z,6.10
2019-04-14T18:26:44.366Z,5.90
2019-04-14T18:29:30.986Z,5.90
2019-04-14T18:32:12.081Z,5.00
2019-04-14T18:34:49.855Z,7.23
2019-04-14T18:37:38.831Z,5.40
2019-04-14T18:40:26.843Z,5.73
2019-04-14T18:43:10.814Z,6.20
2019-04-14T18:45:54.409Z,6.20
2019-04-14T18:48:28.903Z,5.30
2019-04-14T18:51:17.806Z,6.20
2019-04-14T18:53:56.568Z,5.37
2019-04-14T18:56:48.381Z,5.20
2019-04-14T18:59:28.035Z,5.40
2019-04-14T19:01:57.850Z,4.47
2019-04-14T19:04:28.112Z,5.20
2019-04-14T19:06:59.791Z,4.10
2019-04-14T19:09:29.508Z,5.00
2019-04-14T19:12:21.153Z,5.20
2019-04-14T19:14:55.916Z,4.43
2019-04-14T19:17:30.605Z,3.60
2019-04-14T19:20:04.121Z,4.60
2019-04-14T19:22:33.903Z,4.53
2019-04-14T19:25:08.380Z,4.67
2019-04-14T19:27:35.047Z,3.93
2019-04-14T19:30:05.883Z,4.00
2019-04-14T19:32:35.714Z,4.70
2019-04-14T19:35:05.626Z,4.00
2019-04-14T19:37:35.446Z,4.30
2019-04-14T19:40:06.542Z,3.83
2019-04-14T19:42:36.577Z,4.20
2019-04-14T19:45:08.538Z,4.00
2019-04-14T19:47:39.592Z,4.17
2019-04-14T19:50:09.676Z,4.00
2019-04-14T19:52:39.368Z,4.60
2019-04-14T19:55:19.820Z,4.07
2019-04-14T19:57:40.848Z,4.70
2019-04-14T20:00:11.175Z,3.40
2019-04-14T20:02:41.319Z,4.13
2019-04-14T20:05:18.563Z,4.23
2019-04-14T20:07:51.824Z,4.27
2019-04-14T20:10:21.551Z,4.20
2019-04-14T20:12:51.439Z,4.10
2019-04-14T20:15:27.786Z,3.43
2019-04-14T20:18:16.593Z,4.10
2019-04-14T20:21:05.855Z,3.67
2019-04-14T20:23:57.775Z,3.70
2019-04-14T20:26:43.351Z,3.53
2019-04-14T20:29:16.072Z,4.13
2019-04-14T20:31:50.242Z,3.80
2019-04-14T20:34:19.991Z,3.93
2019-04-14T20:36:49.842Z,4.30
2019-04-14T20:39:19.876Z,3.33
2019-04-14T20:41:49.640Z,4.03
2019-04-14T20:44:19.609Z,4.87
2019-04-14T20:46:49.510Z,3.53
2019-04-14T20:49:20.242Z,4.13
2019-04-14T20:51:50.067Z,3.70
2019-04-14T20:54:19.880Z,4.13
2019-04-14T20:56:49.649Z,3.70
2019-04-14T20:59:19.437Z,4.27
2019-04-14T21:02:07.206Z,3.30
2019-04-14T21:04:48.860Z,3.60
2019-04-14T21:07:46.595Z,3.83
2019-04-14T21:10:20.944Z,4.97
2019-04-14T21:12:59.076Z,3.60
2019-04-14T21:15:51.424Z,4.10
2019-04-14T21:18:30.523Z,4.20
2019-04-14T21:21:04.876Z,3.67
2019-04-14T21:23:48.157Z,3.63
2019-04-14T21:26:55.612Z,3.80
2019-04-14T21:29:44.415Z,3.80
2019-04-14T21:32:22.423Z,4.37
2019-04-14T21:35:15.353Z,4.00
2019-04-14T21:38:16.185Z,3.33
2019-04-14T21:40:48.455Z,3.83
2019-04-14T21:43:18.347Z,4.10
2019-04-14T21:45:48.018Z,3.70
2019-04-14T21:48:18.872Z,4.13
2019-04-14T21:50:48.562Z,3.83
2019-04-14T21:53:18.305Z,3.90
2019-04-14T21:55:49.037Z,4.07
2019-04-14T21:58:36.360Z,3.23
2019-04-14T22:01:51.682Z,3.93
2019-04-14T22:04:53.822Z,3.90
2019-04-14T22:07:57.896Z,3.50
2019-04-14T22:10:46.846Z,3.70
2019-04-14T22:13:17.502Z,3.83
2019-04-14T22:15:47.201Z,3.80
2019-04-14T22:18:17.536Z,4.00
2019-04-14T22:20:47.215Z,3.97
2019-04-14T22:23:17.050Z,3.10
2019-04-14T22:25:46.872Z,4.10
2019-04-14T22:28:16.726Z,4.30
2019-04-14T22:30:47.594Z,3.70
2019-04-14T22:33:17.578Z,3.73
2019-04-14T22:35:47.473Z,4.00
2019-04-14T22:38:17.404Z,3.97
2019-04-14T22:40:47.119Z,4.57
2019-04-14T22:43:17.071Z,4.30
2019-04-14T22:45:46.881Z,3.90
2019-04-14T22:48:18.089Z,3.90
2019-04-14T22:50:47.975Z,4.37
2019-04-14T22:53:17.676Z,3.97
2019-04-14T22:55:47.517Z,4.37
2019-04-14T22:58:18.475Z,3.80
2019-04-14T23:00:55.645Z,8.17
2019-04-14T23:03:47.509Z,4.97
2019-04-14T23:06:39.133Z,3.67
2019-04-14T23:09:28.925Z,4.90
2019-04-14T23:12:07.757Z,4.03
2019-04-14T23:14:48.817Z,5.07
2019-04-14T23:17:28.801Z,4.67
2019-04-14T23:20:17.697Z,4.43
2019-04-14T23:22:54.722Z,4.13
2019-04-14T23:25:24.477Z,5.07
2019-04-14T23:27:54.396Z,4.33
2019-04-14T23:30:24.245Z,5.30
2019-04-14T23:32:54.005Z,4.97
2019-04-14T23:35:23.795Z,4.87
2019-04-14T23:37:53.590Z,4.60
2019-04-14T23:40:23.332Z,4.80
2019-04-14T23:42:53.055Z,5.13
2019-04-14T23:45:22.794Z,4.20
2019-04-14T23:47:52.477Z,4.23
2019-04-14T23:50:22.266Z,4.37
2019-04-14T23:52:52.051Z,4.77
2019-04-14T23:55:21.819Z,5.50
2019-04-14T23:57:51.608Z,4.27
